createdAt,value
2017-11-18T00:00:40.851Z,94.89
2017-11-18T00:01:40.841Z,94.79
2017-11-18T00:02:40.888Z,95.55
2017-11-18T00:03:40.829Z,95.17
2017-11-18T00:04:40.828Z,94.70
2017-11-18T00:05:40.818Z,95.17
2017-11-18T00:06:40.834Z,95.08
2017-11-18T00:07:40.806Z,94.70
2017-11-18T00:08:40.833Z,94.70
2017-11-18T00:09:40.793Z,94.79
2017-11-18T00:10:40.792Z,94.70
2017-11-18T00:11:40.781Z,94.89
2017-11-18T00:12:40.774Z,94.79
2017-11-18T00:13:40.771Z,94.79
2017-11-18T00:14:40.764Z,94.98
2017-11-18T00:15:40.757Z,93.65
2017-11-18T00:16:40.755Z,94.60
2017-11-18T00:17:40.745Z,93.75
2017-11-18T00:18:41.773Z,93.75
2017-11-18T00:19:40.733Z,93.56
2017-11-18T00:20:40.726Z,93.65
2017-11-18T00:21:40.721Z,93.51
2017-11-18T00:22:40.720Z,93.89
2017-11-18T00:23:40.707Z,93.99
2017-11-18T00:24:40.705Z,94.46
2017-11-18T00:25:40.698Z,94.46
2017-11-18T00:26:40.690Z,94.93
2017-11-18T00:27:40.684Z,94.08
2017-11-18T00:28:40.681Z,94.84
2017-11-18T00:29:40.673Z,94.74
2017-11-18T00:30:40.675Z,93.99
2017-11-18T00:31:40.658Z,94.65
2017-11-18T00:32:40.754Z,93.89
2017-11-18T00:33:40.653Z,94.37
2017-11-18T00:34:40.641Z,94.56
2017-11-18T00:35:40.636Z,94.08
2017-11-18T00:36:40.678Z,94.08
2017-11-18T00:37:40.622Z,94.65
2017-11-18T00:38:40.617Z,94.56
2017-11-18T00:39:40.608Z,94.74
2017-11-18T00:40:40.605Z,94.65
2017-11-18T00:41:40.598Z,94.46
2017-11-18T00:42:40.599Z,94.37
2017-11-18T00:43:40.584Z,93.60
2017-11-18T00:44:40.983Z,95.03
2017-11-18T00:45:40.572Z,94.56
2017-11-18T00:46:40.565Z,93.89
2017-11-18T00:47:40.561Z,93.60
2017-11-18T00:48:40.558Z,94.93
2017-11-18T00:49:40.547Z,94.65
2017-11-18T00:50:40.545Z,94.37
2017-11-18T00:51:40.533Z,94.74
2017-11-18T00:52:40.530Z,93.99
2017-11-18T00:53:40.533Z,93.70
2017-11-18T00:54:40.514Z,93.70
2017-11-18T00:55:40.512Z,93.37
2017-11-18T00:56:40.504Z,93.60
2017-11-18T00:57:40.498Z,93.32
2017-11-18T00:58:40.489Z,93.70
2017-11-18T00:59:40.663Z,93.46
2017-11-18T01:00:40.754Z,93.65
2017-11-18T01:01:40.486Z,92.90
2017-11-18T01:02:40.566Z,93.75
2017-11-18T01:03:40.672Z,93.65
2017-11-18T01:04:40.463Z,93.56
2017-11-18T01:05:40.446Z,93.65
2017-11-18T01:06:40.451Z,93.84
2017-11-18T01:07:40.429Z,93.56
2017-11-18T01:08:40.423Z,93.56
2017-11-18T01:09:40.429Z,93.65
2017-11-18T01:10:40.427Z,92.61
2017-11-18T01:11:40.408Z,93.08
2017-11-18T01:12:40.400Z,92.42
2017-11-18T01:13:40.394Z,92.14
2017-11-18T01:14:40.382Z,92.52
2017-11-18T01:15:40.383Z,91.66
2017-11-18T01:16:40.371Z,92.04
2017-11-18T01:17:40.367Z,91.56
2017-11-18T01:18:40.362Z,92.99
2017-11-18T01:19:40.351Z,92.80
2017-11-18T01:20:40.348Z,93.56
2017-11-18T01:21:40.341Z,93.56
2017-11-18T01:22:40.338Z,93.46
2017-11-18T01:23:40.326Z,92.80
2017-11-18T01:24:40.321Z,93.18
2017-11-18T01:25:40.312Z,93.08
2017-11-18T01:26:40.309Z,93.46
2017-11-18T01:27:40.305Z,93.75
2017-11-18T01:28:40.292Z,92.90
2017-11-18T01:29:40.295Z,93.18
2017-11-18T01:30:40.285Z,92.04
2017-11-18T01:31:40.271Z,92.04
2017-11-18T01:32:40.264Z,92.14
2017-11-18T01:33:40.259Z,91.66
2017-11-18T01:34:40.263Z,91.75
2017-11-18T01:35:40.245Z,91.66
2017-11-18T01:36:40.256Z,91.94
2017-11-18T01:37:40.235Z,92.33
2017-11-18T01:38:40.245Z,91.75
2017-11-18T01:39:40.220Z,91.66
2017-11-18T01:40:40.220Z,92.23
2017-11-18T01:41:40.207Z,92.42
2017-11-18T01:42:40.199Z,92.14
2017-11-18T01:43:40.200Z,92.42
2017-11-18T01:44:40.184Z,92.61
2017-11-18T01:45:40.178Z,92.61
2017-11-18T01:46:40.182Z,93.08
2017-11-18T01:47:40.168Z,92.99
2017-11-18T01:48:40.158Z,92.23
2017-11-18T01:49:40.151Z,92.42
2017-11-18T01:50:40.145Z,92.33
2017-11-18T01:51:40.139Z,92.23
2017-11-18T01:52:40.131Z,92.52
2017-11-18T01:53:40.126Z,92.42
2017-11-18T01:54:40.122Z,91.66
2017-11-18T01:55:40.111Z,92.52
2017-11-18T01:56:40.104Z,92.14
2017-11-18T01:57:40.098Z,92.61
2017-11-18T01:58:40.091Z,92.71
2017-11-18T01:59:40.088Z,92.52
2017-11-18T02:00:40.077Z,93.08
2017-11-18T02:01:40.069Z,92.71
2017-11-18T02:02:40.067Z,92.23
2017-11-18T02:03:40.057Z,93.18
2017-11-18T02:04:40.049Z,93.08
2017-11-18T02:05:40.042Z,92.52
2017-11-18T02:06:40.036Z,92.23
2017-11-18T02:07:40.032Z,92.42
2017-11-18T02:08:40.022Z,92.14
2017-11-18T02:09:40.015Z,92.33
2017-11-18T02:10:40.007Z,92.04
2017-11-18T02:11:40.000Z,92.14
2017-11-18T02:12:40.003Z,92.42
2017-11-18T02:13:39.986Z,92.42
2017-11-18T02:14:39.980Z,92.42
2017-11-18T02:15:39.979Z,92.52
2017-11-18T02:16:40.192Z,92.99
2017-11-18T02:17:39.958Z,92.28
2017-11-18T02:18:39.953Z,92.80
2017-11-18T02:19:39.947Z,92.42
2017-11-18T02:20:39.937Z,93.04
2017-11-18T02:21:39.930Z,93.08
2017-11-18T02:22:39.926Z,93.13
2017-11-18T02:23:39.916Z,92.71
2017-11-18T02:24:39.909Z,93.18
2017-11-18T02:25:39.906Z,92.80
2017-11-18T02:26:39.895Z,92.90
2017-11-18T02:27:39.893Z,92.71
2017-11-18T02:28:39.880Z,92.52
2017-11-18T02:29:39.884Z,92.18
2017-11-18T02:30:39.867Z,92.42
2017-11-18T02:31:39.861Z,93.18
2017-11-18T02:32:39.857Z,92.18
2017-11-18T02:33:39.846Z,92.94
2017-11-18T02:34:39.839Z,92.14
2017-11-18T02:35:39.837Z,92.14
2017-11-18T02:36:39.830Z,92.14
2017-11-18T02:37:39.824Z,92.61
2017-11-18T02:38:39.824Z,93.23
2017-11-18T02:39:39.817Z,92.99
2017-11-18T02:40:39.893Z,92.76
2017-11-18T02:41:39.794Z,92.66
2017-11-18T02:42:39.790Z,92.47
2017-11-18T02:43:39.776Z,92.61
2017-11-18T02:44:39.769Z,92.28
2017-11-18T02:45:39.762Z,91.90
2017-11-18T02:46:39.756Z,91.61
2017-11-18T02:47:40.594Z,91.52
2017-11-18T02:48:39.742Z,91.71
2017-11-18T02:49:39.738Z,91.90
2017-11-18T02:50:39.727Z,91.52
2017-11-18T02:51:39.721Z,91.09
2017-11-18T02:52:39.713Z,91.85
2017-11-18T02:53:39.706Z,92.04
2017-11-18T02:54:39.711Z,91.80
2017-11-18T02:55:39.700Z,91.33
2017-11-18T02:56:39.685Z,91.14
2017-11-18T02:57:39.688Z,91.09
2017-11-18T02:58:39.671Z,91.28
2017-11-18T02:59:39.664Z,91.66
2017-11-18T03:00:39.657Z,91.47
2017-11-18T03:01:39.649Z,91.00
2017-11-18T03:02:39.642Z,91.42
2017-11-18T03:03:39.649Z,91.33
2017-11-18T03:04:39.630Z,91.24
2017-11-18T03:05:39.623Z,91.05
2017-11-18T03:06:39.616Z,91.14
2017-11-18T03:07:39.609Z,91.09
2017-11-18T03:08:39.600Z,91.14
2017-11-18T03:09:39.594Z,91.24
2017-11-18T03:10:39.586Z,91.24
2017-11-18T03:11:39.580Z,91.05
2017-11-18T03:12:39.577Z,91.80
2017-11-18T03:13:39.566Z,91.24
2017-11-18T03:14:39.563Z,91.24
2017-11-18T03:15:39.553Z,91.99
2017-11-18T03:16:39.546Z,91.61
2017-11-18T03:17:39.540Z,91.42
2017-11-18T03:18:39.531Z,91.05
2017-11-18T03:19:39.523Z,91.05
2017-11-18T03:20:39.531Z,91.05
2017-11-18T03:21:39.510Z,91.90
2017-11-18T03:22:39.503Z,91.99
2017-11-18T03:23:39.496Z,91.71
2017-11-18T03:24:39.489Z,91.90
2017-11-18T03:25:39.481Z,91.61
2017-11-18T03:26:39.474Z,91.99
2017-11-18T03:27:39.467Z,91.99
2017-11-18T03:28:39.462Z,91.90
2017-11-18T03:29:39.455Z,92.57
2017-11-18T03:30:39.448Z,91.90
2017-11-18T03:31:39.445Z,92.09
2017-11-18T03:32:39.430Z,91.71
2017-11-18T03:33:39.425Z,91.71
2017-11-18T03:34:39.419Z,91.99
2017-11-18T03:35:39.409Z,91.80
2017-11-18T03:36:39.404Z,91.80
2017-11-18T03:37:39.396Z,91.80
2017-11-18T03:38:39.389Z,91.61
2017-11-18T03:39:39.382Z,91.61
2017-11-18T03:40:39.374Z,91.99
2017-11-18T03:41:39.375Z,91.80
2017-11-18T03:42:39.360Z,92.09
2017-11-18T03:43:39.390Z,91.14
2017-11-18T03:44:39.366Z,91.24
2017-11-18T03:45:39.340Z,90.95
2017-11-18T03:46:39.333Z,91.24
2017-11-18T03:47:39.323Z,91.24
2017-11-18T03:48:39.353Z,91.05
2017-11-18T03:49:39.316Z,90.86
2017-11-18T03:50:39.304Z,90.76
2017-11-18T03:51:39.298Z,90.48
2017-11-18T03:52:39.288Z,90.38
2017-11-18T03:53:39.281Z,91.33
2017-11-18T03:54:39.274Z,90.86
2017-11-18T03:55:39.266Z,90.19
2017-11-18T03:56:39.259Z,90.48
2017-11-18T03:57:39.256Z,91.05
2017-11-18T03:58:39.245Z,91.52
2017-11-18T03:59:39.252Z,90.86
2017-11-18T04:00:39.231Z,91.42
2017-11-18T04:01:39.226Z,90.86
2017-11-18T04:02:39.220Z,91.33
2017-11-18T04:03:39.212Z,90.76
2017-11-18T04:04:39.203Z,91.42
2017-11-18T04:05:39.203Z,91.42
2017-11-18T04:06:39.190Z,91.05
2017-11-18T04:07:39.182Z,91.33
2017-11-18T04:08:39.174Z,91.33
2017-11-18T04:09:39.167Z,91.71
2017-11-18T04:10:39.164Z,91.80
2017-11-18T04:11:39.155Z,91.90
2017-11-18T04:12:39.147Z,91.90
2017-11-18T04:13:39.139Z,91.61
2017-11-18T04:14:39.131Z,91.61
2017-11-18T04:15:39.124Z,91.80
2017-11-18T04:16:39.121Z,91.80
2017-11-18T04:17:39.119Z,91.80
2017-11-18T04:18:39.137Z,91.80
2017-11-18T04:19:39.757Z,91.80
2017-11-18T04:20:39.089Z,92.09
2017-11-18T04:21:39.081Z,91.90
2017-11-18T04:22:39.075Z,91.90
2017-11-18T04:23:39.068Z,91.80
2017-11-18T04:24:39.059Z,92.09
2017-11-18T04:25:39.061Z,91.80
2017-11-18T04:26:39.048Z,91.99
2017-11-18T04:27:39.038Z,91.61
2017-11-18T04:28:39.032Z,91.61
2017-11-18T04:29:39.024Z,91.80
2017-11-18T04:30:39.022Z,91.80
2017-11-18T04:31:39.025Z,92.28
2017-11-18T04:32:39.001Z,91.80
2017-11-18T04:33:38.999Z,92.09
2017-11-18T04:34:38.988Z,91.80
2017-11-18T04:35:40.117Z,91.80
2017-11-18T04:36:38.973Z,91.90
2017-11-18T04:37:38.967Z,91.90
2017-11-18T04:38:38.960Z,91.99
2017-11-18T04:39:38.954Z,91.52
2017-11-18T04:40:38.947Z,91.99
2017-11-18T04:41:38.939Z,91.99
2017-11-18T04:42:38.931Z,91.80
2017-11-18T04:43:38.923Z,91.61
2017-11-18T04:44:38.916Z,91.61
2017-11-18T04:45:38.910Z,91.99
2017-11-18T04:46:38.902Z,92.09
2017-11-18T04:47:38.895Z,91.80
2017-11-18T04:48:38.896Z,92.38
2017-11-18T04:49:38.880Z,92.47
2017-11-18T04:50:38.873Z,92.09
2017-11-18T04:51:38.865Z,92.09
2017-11-18T04:52:38.856Z,92.94
2017-11-18T04:53:38.853Z,93.04
2017-11-18T04:54:38.843Z,92.18
2017-11-18T04:55:38.836Z,91.99
2017-11-18T04:56:38.836Z,92.57
2017-11-18T04:57:38.819Z,92.38
2017-11-18T04:58:38.815Z,92.38
2017-11-18T04:59:38.806Z,93.23
2017-11-18T05:00:38.800Z,93.13
2017-11-18T05:01:38.790Z,92.66
2017-11-18T05:02:38.784Z,93.04
2017-11-18T05:03:38.776Z,92.85
2017-11-18T05:04:38.768Z,92.85
2017-11-18T05:05:38.762Z,92.85
2017-11-18T05:06:38.754Z,92.85
2017-11-18T05:07:38.747Z,92.47
2017-11-18T05:08:38.743Z,92.85
2017-11-18T05:09:38.731Z,92.85
2017-11-18T05:10:38.721Z,92.38
2017-11-18T05:11:38.715Z,91.99
2017-11-18T05:12:38.710Z,92.38
2017-11-18T05:13:38.701Z,92.76
2017-11-18T05:14:38.694Z,92.85
2017-11-18T05:15:38.684Z,93.04
2017-11-18T05:16:38.677Z,92.57
2017-11-18T05:17:38.670Z,93.04
2017-11-18T05:18:38.662Z,92.66
2017-11-18T05:19:38.655Z,93.13
2017-11-18T05:20:38.646Z,92.85
2017-11-18T05:21:38.639Z,92.76
2017-11-18T05:22:38.633Z,92.76
2017-11-18T05:23:38.624Z,93.04
2017-11-18T05:24:38.617Z,92.47
2017-11-18T05:25:38.610Z,92.76
2017-11-18T05:26:38.601Z,92.94
2017-11-18T05:27:38.595Z,92.94
2017-11-18T05:28:38.587Z,92.94
2017-11-18T05:29:38.580Z,92.94
2017-11-18T05:30:38.571Z,92.94
2017-11-18T05:31:38.565Z,92.94
2017-11-18T05:32:38.556Z,92.94
2017-11-18T05:33:38.548Z,92.57
2017-11-18T05:34:38.541Z,93.13
2017-11-18T05:35:38.534Z,92.85
2017-11-18T05:36:38.525Z,93.04
2017-11-18T05:37:38.518Z,92.85
2017-11-18T05:38:38.514Z,93.13
2017-11-18T05:39:38.503Z,92.76
2017-11-18T05:40:38.494Z,92.47
2017-11-18T05:41:38.487Z,93.04
2017-11-18T05:42:38.481Z,92.85
2017-11-18T05:43:38.475Z,93.13
2017-11-18T05:44:38.467Z,92.76
2017-11-18T05:45:38.458Z,92.57
2017-11-18T05:46:38.449Z,92.57
2017-11-18T05:47:38.443Z,93.13
2017-11-18T05:48:38.448Z,92.90
2017-11-18T05:49:38.426Z,92.85
2017-11-18T05:50:38.418Z,92.71
2017-11-18T05:51:38.920Z,92.76
2017-11-18T05:52:38.402Z,92.66
2017-11-18T05:53:38.399Z,93.08
2017-11-18T05:54:38.388Z,92.76
2017-11-18T05:55:38.381Z,92.42
2017-11-18T05:56:38.373Z,92.23
2017-11-18T05:57:38.388Z,92.33
2017-11-18T05:58:38.365Z,91.57
2017-11-18T05:59:38.361Z,92.04
2017-11-18T06:00:38.341Z,91.95
2017-11-18T06:01:38.335Z,91.66
2017-11-18T06:02:38.329Z,91.95
2017-11-18T06:03:38.322Z,92.04
2017-11-18T06:04:38.312Z,91.76
2017-11-18T06:05:38.304Z,91.47
2017-11-18T06:06:38.295Z,92.23
2017-11-18T06:07:38.287Z,91.57
2017-11-18T06:08:38.280Z,91.85
2017-11-18T06:09:38.278Z,91.85
2017-11-18T06:10:38.265Z,92.23
2017-11-18T06:11:38.256Z,91.47
2017-11-18T06:12:38.248Z,91.47
2017-11-18T06:13:38.244Z,91.57
2017-11-18T06:14:38.233Z,92.23
2017-11-18T06:15:38.225Z,92.23
2017-11-18T06:16:38.218Z,92.04
2017-11-18T06:17:38.210Z,92.14
2017-11-18T06:18:38.203Z,92.52
2017-11-18T06:19:38.196Z,92.99
2017-11-18T06:20:38.201Z,92.23
2017-11-18T06:21:38.181Z,92.14
2017-11-18T06:22:38.171Z,92.04
2017-11-18T06:23:38.162Z,92.90
2017-11-18T06:24:38.154Z,92.14
2017-11-18T06:25:38.146Z,92.42
2017-11-18T06:26:38.139Z,92.90
2017-11-18T06:27:38.129Z,92.23
2017-11-18T06:28:38.125Z,92.04
2017-11-18T06:29:38.121Z,92.52
2017-11-18T06:30:38.112Z,91.57
2017-11-18T06:31:38.099Z,92.28
2017-11-18T06:32:38.092Z,91.71
2017-11-18T06:33:38.086Z,91.47
2017-11-18T06:34:38.076Z,91.62
2017-11-18T06:35:38.072Z,91.57
2017-11-18T06:36:38.058Z,91.71
2017-11-18T06:37:38.053Z,92.14
2017-11-18T06:38:38.044Z,91.71
2017-11-18T06:39:38.037Z,91.85
2017-11-18T06:40:38.029Z,92.28
2017-11-18T06:41:38.019Z,91.43
2017-11-18T06:42:38.012Z,91.81
2017-11-18T06:43:38.002Z,91.81
2017-11-18T06:44:38.002Z,92.00
2017-11-18T06:45:37.987Z,92.00
2017-11-18T06:46:37.980Z,92.09
2017-11-18T06:47:37.970Z,91.90
2017-11-18T06:48:37.964Z,92.00
2017-11-18T06:49:37.954Z,91.81
2017-11-18T06:50:37.949Z,92.19
2017-11-18T06:51:37.938Z,92.47
2017-11-18T06:52:37.929Z,91.52
2017-11-18T06:53:37.920Z,92.19
2017-11-18T06:54:37.915Z,92.09
2017-11-18T06:55:37.905Z,92.00
2017-11-18T06:56:37.902Z,92.28
2017-11-18T06:57:37.897Z,92.38
2017-11-18T06:58:37.882Z,91.62
2017-11-18T06:59:37.872Z,91.57
2017-11-18T07:00:37.864Z,91.71
2017-11-18T07:01:37.855Z,91.76
2017-11-18T07:02:37.851Z,90.91
2017-11-18T07:03:37.838Z,90.81
2017-11-18T07:04:37.837Z,90.91
2017-11-18T07:05:37.823Z,90.81
2017-11-18T07:06:37.824Z,91.28
2017-11-18T07:07:37.806Z,91.28
2017-11-18T07:08:37.798Z,90.72
2017-11-18T07:09:37.803Z,90.81
2017-11-18T07:10:37.783Z,90.43
2017-11-18T07:11:37.772Z,89.67
2017-11-18T07:12:37.766Z,90.24
2017-11-18T07:13:37.760Z,90.05
2017-11-18T07:14:37.758Z,89.96
2017-11-18T07:15:37.743Z,90.15
2017-11-18T07:16:37.734Z,90.53
2017-11-18T07:17:37.730Z,89.77
2017-11-18T07:18:37.718Z,90.34
2017-11-18T07:19:37.710Z,89.77
2017-11-18T07:20:37.700Z,90.43
2017-11-18T07:21:37.694Z,90.15
2017-11-18T07:22:37.686Z,89.86
2017-11-18T07:23:38.059Z,89.77
2017-11-18T07:24:37.669Z,90.24
2017-11-18T07:25:37.667Z,89.67
2017-11-18T07:26:37.654Z,89.91
2017-11-18T07:27:37.646Z,89.96
2017-11-18T07:28:37.640Z,89.62
2017-11-18T07:29:37.631Z,89.53
2017-11-18T07:30:37.633Z,89.62
2017-11-18T07:31:37.615Z,89.62
2017-11-18T07:32:37.606Z,89.43
2017-11-18T07:33:37.599Z,89.43
2017-11-18T07:34:37.590Z,89.43
2017-11-18T07:35:37.587Z,89.43
2017-11-18T07:36:37.575Z,89.15
2017-11-18T07:37:37.568Z,89.25
2017-11-18T07:38:37.560Z,88.96
2017-11-18T07:39:37.562Z,88.87
2017-11-18T07:40:37.545Z,88.77
2017-11-18T07:41:37.537Z,89.15
2017-11-18T07:42:37.531Z,88.68
2017-11-18T07:43:37.521Z,88.20
2017-11-18T07:44:37.516Z,88.87
2017-11-18T07:45:37.505Z,88.68
2017-11-18T07:46:37.498Z,88.10
2017-11-18T07:47:37.489Z,88.68
2017-11-18T07:48:37.480Z,88.29
2017-11-18T07:49:37.476Z,87.82
2017-11-18T07:50:37.470Z,88.10
2017-11-18T07:51:37.459Z,87.92
2017-11-18T07:52:37.451Z,88.29
2017-11-18T07:53:37.442Z,88.39
2017-11-18T07:54:37.436Z,88.20
2017-11-18T07:55:37.427Z,88.20
2017-11-18T07:56:37.421Z,88.10
2017-11-18T07:57:37.411Z,88.20
2017-11-18T07:58:37.403Z,87.92
2017-11-18T07:59:37.395Z,87.92
2017-11-18T08:00:37.388Z,88.10
2017-11-18T08:01:37.381Z,88.10
2017-11-18T08:02:37.375Z,88.20
2017-11-18T08:03:37.367Z,87.45
2017-11-18T08:04:37.357Z,87.25
2017-11-18T08:05:37.352Z,87.54
2017-11-18T08:06:37.342Z,87.54
2017-11-18T08:07:37.335Z,87.45
2017-11-18T08:08:37.329Z,87.25
2017-11-18T08:09:37.320Z,87.45
2017-11-18T08:10:37.311Z,87.25
2017-11-18T08:11:37.304Z,87.63
2017-11-18T08:12:37.298Z,87.54
2017-11-18T08:13:37.288Z,87.82
2017-11-18T08:14:37.295Z,87.82
2017-11-18T08:15:37.273Z,86.87
2017-11-18T08:16:37.264Z,86.97
2017-11-18T08:17:37.259Z,86.21
2017-11-18T08:18:37.250Z,86.11
2017-11-18T08:19:37.243Z,86.11
2017-11-18T08:20:37.233Z,86.21
2017-11-18T08:21:37.226Z,85.45
2017-11-18T08:22:37.220Z,86.30
2017-11-18T08:23:37.211Z,86.02
2017-11-18T08:24:37.203Z,86.21
2017-11-18T08:25:37.195Z,85.49
2017-11-18T08:26:37.187Z,86.07
2017-11-18T08:27:37.182Z,85.36
2017-11-18T08:28:37.173Z,85.68
2017-11-18T08:29:37.166Z,85.68
2017-11-18T08:30:37.159Z,85.26
2017-11-18T08:31:37.151Z,85.26
2017-11-18T08:32:37.143Z,85.49
2017-11-18T08:33:37.137Z,85.59
2017-11-18T08:34:37.128Z,85.59
2017-11-18T08:35:37.120Z,85.59
2017-11-18T08:36:37.116Z,85.78
2017-11-18T08:37:37.114Z,85.21
2017-11-18T08:38:37.098Z,84.74
2017-11-18T08:39:37.089Z,84.83
2017-11-18T08:40:37.083Z,84.92
2017-11-18T08:41:37.081Z,84.92
2017-11-18T08:42:37.068Z,84.74
2017-11-18T08:43:37.059Z,84.36
2017-11-18T08:44:37.054Z,84.07
2017-11-18T08:45:37.045Z,83.50
2017-11-18T08:46:37.041Z,83.03
2017-11-18T08:47:37.037Z,82.93
2017-11-18T08:48:37.025Z,82.12
2017-11-18T08:49:37.015Z,82.21
2017-11-18T08:50:37.011Z,81.36
2017-11-18T08:51:37.002Z,80.51
2017-11-18T08:52:36.994Z,80.69
2017-11-18T08:53:36.988Z,80.41
2017-11-18T08:54:36.982Z,79.46
2017-11-18T08:55:37.225Z,79.08
2017-11-18T08:56:36.965Z,78.80
2017-11-18T08:57:36.959Z,78.23
2017-11-18T08:58:36.955Z,77.94
2017-11-18T08:59:36.950Z,77.18
2017-11-18T09:00:36.938Z,76.90
2017-11-18T09:01:36.932Z,76.99
2017-11-18T09:02:36.927Z,76.42
2017-11-18T09:03:36.926Z,76.14
2017-11-18T09:04:36.910Z,75.38
2017-11-18T09:05:37.179Z,75.19
2017-11-18T09:06:37.015Z,74.15
2017-11-18T09:07:36.889Z,73.57
2017-11-18T09:08:36.885Z,74.08
2017-11-18T09:09:36.877Z,73.48
2017-11-18T09:10:36.871Z,73.48
2017-11-18T09:11:36.864Z,73.52
2017-11-18T09:12:36.857Z,73.23
2017-11-18T09:13:36.852Z,73.23
2017-11-18T09:14:36.848Z,72.56
2017-11-18T09:15:36.837Z,70.76
2017-11-18T09:16:36.831Z,70.00
2017-11-18T09:17:36.824Z,70.19
2017-11-18T09:18:36.816Z,70.48
2017-11-18T09:19:36.810Z,70.57
2017-11-18T09:20:36.804Z,70.19
2017-11-18T09:21:36.797Z,68.86
2017-11-18T09:22:36.792Z,68.39
2017-11-18T09:23:36.785Z,68.10
2017-11-18T09:24:36.780Z,67.72
2017-11-18T09:25:36.771Z,67.34
2017-11-18T09:26:37.617Z,67.72
2017-11-18T09:27:36.757Z,67.53
2017-11-18T09:28:37.108Z,67.63
2017-11-18T09:29:36.745Z,67.44
2017-11-18T09:30:36.757Z,67.15
2017-11-18T09:31:36.732Z,67.53
2017-11-18T09:32:36.735Z,67.25
2017-11-18T09:33:36.720Z,67.82
2017-11-18T09:34:36.714Z,68.19
2017-11-18T09:35:36.707Z,68.10
2017-11-18T09:36:36.702Z,68.39
2017-11-18T09:37:36.693Z,67.25
2017-11-18T09:38:36.708Z,66.87
2017-11-18T09:39:36.679Z,66.77
2017-11-18T09:40:36.675Z,66.58
2017-11-18T09:41:36.668Z,67.15
2017-11-18T09:42:36.663Z,67.06
2017-11-18T09:43:36.655Z,66.96
2017-11-18T09:44:36.649Z,66.77
2017-11-18T09:45:36.642Z,67.44
2017-11-18T09:46:36.638Z,67.53
2017-11-18T09:47:36.630Z,67.06
2017-11-18T09:48:36.623Z,66.96
2017-11-18T09:49:36.617Z,67.15
2017-11-18T09:50:36.611Z,66.77
2017-11-18T09:51:36.605Z,67.25
2017-11-18T09:52:36.599Z,66.77
2017-11-18T09:53:36.592Z,66.30
2017-11-18T09:54:36.598Z,66.30
2017-11-18T09:55:36.580Z,66.39
2017-11-18T09:56:36.573Z,66.20
2017-11-18T09:57:36.568Z,66.11
2017-11-18T09:58:36.562Z,65.73
2017-11-18T09:59:36.554Z,65.73
2017-11-18T10:00:36.548Z,66.58
2017-11-18T10:01:36.542Z,66.58
2017-11-18T10:02:36.542Z,65.92
2017-11-18T10:03:36.533Z,65.73
2017-11-18T10:04:36.524Z,66.01
2017-11-18T10:05:36.517Z,66.39
2017-11-18T10:06:36.514Z,65.54
2017-11-18T10:07:36.506Z,65.63
2017-11-18T10:08:36.501Z,65.63
2017-11-18T10:09:36.500Z,65.44
2017-11-18T10:10:36.491Z,65.63
2017-11-18T10:11:36.483Z,66.11
2017-11-18T10:12:36.476Z,65.35
2017-11-18T10:13:36.471Z,65.44
2017-11-18T10:14:36.471Z,64.97
2017-11-18T10:15:36.459Z,64.87
2017-11-18T10:16:36.451Z,65.25
2017-11-18T10:17:36.446Z,65.25
2017-11-18T10:18:36.441Z,65.35
2017-11-18T10:19:36.435Z,65.35
2017-11-18T10:20:36.425Z,65.54
2017-11-18T10:21:36.420Z,65.54
2017-11-18T10:22:36.423Z,65.92
2017-11-18T10:23:36.408Z,66.11
2017-11-18T10:24:36.403Z,65.25
2017-11-18T10:25:36.396Z,65.73
2017-11-18T10:26:36.390Z,64.87
2017-11-18T10:27:36.456Z,64.78
2017-11-18T10:28:36.380Z,64.78
2017-11-18T10:29:36.371Z,64.87
2017-11-18T10:30:36.364Z,65.82
2017-11-18T10:31:36.357Z,65.54
2017-11-18T10:32:36.354Z,65.73
2017-11-18T10:33:36.345Z,65.44
2017-11-18T10:34:36.341Z,65.82
2017-11-18T10:35:36.335Z,65.25
2017-11-18T10:36:36.333Z,65.16
2017-11-18T10:37:36.321Z,64.30
2017-11-18T10:38:36.317Z,64.87
2017-11-18T10:39:36.317Z,64.78
2017-11-18T10:40:36.847Z,63.73
2017-11-18T10:41:36.298Z,64.21
2017-11-18T10:42:36.292Z,64.21
2017-11-18T10:43:36.285Z,63.73
2017-11-18T10:44:36.334Z,64.02
2017-11-18T10:45:36.272Z,63.92
2017-11-18T10:46:36.267Z,64.40
2017-11-18T10:47:36.260Z,62.97
2017-11-18T10:48:36.255Z,62.97
2017-11-18T10:49:36.248Z,62.97
2017-11-18T10:50:36.241Z,63.35
2017-11-18T10:51:36.235Z,62.97
2017-11-18T10:52:36.230Z,63.35
2017-11-18T10:53:36.231Z,63.26
2017-11-18T10:54:36.221Z,63.26
2017-11-18T10:55:36.211Z,62.88
2017-11-18T10:56:36.208Z,63.26
2017-11-18T10:57:36.198Z,63.45
2017-11-18T10:58:36.891Z,63.45
2017-11-18T10:59:36.193Z,62.69
2017-11-18T11:00:36.188Z,63.17
2017-11-18T11:01:36.174Z,62.78
2017-11-18T11:02:36.170Z,62.97
2017-11-18T11:03:36.162Z,63.07
2017-11-18T11:04:36.157Z,63.07
2017-11-18T11:05:36.150Z,62.97
2017-11-18T11:06:36.145Z,63.45
2017-11-18T11:07:36.141Z,63.20
2017-11-18T11:08:36.133Z,62.97
2017-11-18T11:09:36.129Z,62.97
2017-11-18T11:10:36.123Z,62.59
2017-11-18T11:11:36.115Z,63.20
2017-11-18T11:12:36.112Z,62.59
2017-11-18T11:13:36.102Z,62.40
2017-11-18T11:14:36.105Z,62.53
2017-11-18T11:15:36.095Z,62.31
2017-11-18T11:16:36.084Z,62.05
2017-11-18T11:17:36.125Z,62.12
2017-11-18T11:18:36.095Z,61.87
2017-11-18T11:19:36.063Z,61.29
2017-11-18T11:20:36.061Z,61.29
2017-11-18T11:21:36.149Z,61.87
2017-11-18T11:22:36.047Z,61.77
2017-11-18T11:23:36.041Z,61.87
2017-11-18T11:24:36.048Z,60.91
2017-11-18T11:25:36.029Z,60.91
2017-11-18T11:26:36.141Z,60.91
2017-11-18T11:27:36.048Z,61.10
2017-11-18T11:28:36.012Z,60.91
2017-11-18T11:29:36.006Z,60.91
2017-11-18T11:30:36.000Z,61.20
2017-11-18T11:31:35.994Z,60.82
2017-11-18T11:32:35.989Z,61.48
2017-11-18T11:33:35.983Z,60.63
2017-11-18T11:34:35.977Z,61.10
2017-11-18T11:35:35.970Z,61.87
2017-11-18T11:36:35.973Z,61.87
2017-11-18T11:37:35.969Z,61.77
2017-11-18T11:38:35.952Z,61.68
2017-11-18T11:39:35.948Z,61.20
2017-11-18T11:40:35.941Z,61.10
2017-11-18T11:41:35.936Z,60.91
2017-11-18T11:42:35.932Z,60.82
2017-11-18T11:43:35.924Z,61.10
2017-11-18T11:44:35.918Z,61.29
2017-11-18T11:45:35.988Z,61.87
2017-11-18T11:46:36.569Z,61.48
2017-11-18T11:47:35.902Z,61.48
2017-11-18T11:48:35.896Z,61.48
2017-11-18T11:49:35.977Z,61.10
2017-11-18T11:50:35.883Z,61.87
2017-11-18T11:51:35.877Z,61.77
2017-11-18T11:52:35.873Z,61.68
2017-11-18T11:53:35.869Z,61.58
2017-11-18T11:54:35.858Z,61.58
2017-11-18T11:55:35.852Z,61.68
2017-11-18T11:56:35.849Z,61.39
2017-11-18T11:57:35.842Z,61.96
2017-11-18T11:58:35.835Z,62.05
2017-11-18T11:59:35.829Z,62.34
2017-11-18T12:00:35.830Z,61.58
2017-11-18T12:01:35.818Z,61.87
2017-11-18T12:02:35.812Z,62.15
2017-11-18T12:03:35.806Z,62.05
2017-11-18T12:04:35.807Z,61.58
2017-11-18T12:05:35.795Z,61.48
2017-11-18T12:06:35.790Z,61.39
2017-11-18T12:07:35.782Z,61.48
2017-11-18T12:08:35.776Z,61.48
2017-11-18T12:09:35.771Z,61.87
2017-11-18T12:10:35.766Z,61.20
2017-11-18T12:11:35.759Z,60.91
2017-11-18T12:12:35.753Z,61.77
2017-11-18T12:13:35.751Z,61.39
2017-11-18T12:14:35.741Z,62.34
2017-11-18T12:15:35.739Z,61.48
2017-11-18T12:16:35.728Z,62.05
2017-11-18T12:17:35.726Z,61.68
2017-11-18T12:18:35.718Z,62.43
2017-11-18T12:19:35.825Z,61.48
2017-11-18T12:20:35.781Z,61.77
2017-11-18T12:21:36.521Z,61.48
2017-11-18T12:22:35.694Z,61.77
2017-11-18T12:23:35.687Z,61.68
2017-11-18T12:24:35.682Z,61.96
2017-11-18T12:25:35.678Z,62.12
2017-11-18T12:26:35.676Z,62.24
2017-11-18T12:27:35.686Z,62.15
2017-11-18T12:28:35.658Z,62.15
2017-11-18T12:29:35.657Z,61.96
2017-11-18T12:30:36.233Z,61.96
2017-11-18T12:31:35.645Z,62.34
2017-11-18T12:32:35.637Z,62.24
2017-11-18T12:33:35.629Z,61.96
2017-11-18T12:34:35.628Z,62.05
2017-11-18T12:35:35.630Z,61.96
2017-11-18T12:36:35.611Z,61.29
2017-11-18T12:37:35.606Z,61.74
2017-11-18T12:38:35.601Z,61.39
2017-11-18T12:39:35.592Z,61.29
2017-11-18T12:40:35.587Z,61.87
2017-11-18T12:41:35.583Z,61.83
2017-11-18T12:42:35.575Z,61.77
2017-11-18T12:43:35.573Z,61.29
2017-11-18T12:44:35.564Z,61.87
2017-11-18T12:45:35.558Z,61.87
2017-11-18T12:46:35.609Z,62.05
2017-11-18T12:47:35.544Z,62.24
2017-11-18T12:48:35.540Z,61.77
2017-11-18T12:49:35.533Z,62.15
2017-11-18T12:50:35.533Z,62.05
2017-11-18T12:51:35.521Z,62.24
2017-11-18T12:52:35.521Z,62.24